Villa Vizcay, Puerto Rico
Current Conditions -  °F | °C
As of 12:56 AM on Thursday 27 Nov 2014 (Local Time) from TJSJ Reporting Station
Scattered Clouds Scattered Clouds  
Wind Chill: 25°   Ceiling: Unl
Heat Index: 26°   Visibility: 10mi
Dew Point: 23°   Wind: 0mph
Humidity: 90%   Direction: NA
Pressure: 30"   Gusts: NA
Location:  18.3817°N, 65.8302°W
Report Text: TJSJ 270456Z 00000KT 10SM FEW035 SCT060 25/23 A3000 RMK AO2 SLP159 T02500233
Loading
Personal Weather Stations






























Interactive Weather Map New forecast layout! Learn more

10-Day Weather Forecast

Advertisements
Track Severe Weather on mobile